Time;durP1;ratioP1;P1;durP2;ratioP2;P2;SDS_P1;SDS_P2;PMS_P1;PMS_P2;Temp;Humidity;BMP_temperature;BMP_pressure;BME280_temperature;BME280_humidity;BME280_pressure;Samples;Min_cycle;Max_cycle;Signal;HPM_P1;HPM_P2
2024/01/29 00:00:10;;;;;;;8.60;3.10;;;6.30;99.90;;;;;;5105665;28;20559;-53
2024/01/29 00:02:37;;;;;;;5.32;3.42;;;6.30;99.90;;;;;;5112964;28;20382;-58
2024/01/29 00:05:02;;;;;;;5.80;3.47;;;6.20;99.90;;;;;;5113061;28;20024;-57
2024/01/29 00:07:28;;;;;;;8.60;3.90;;;6.20;99.90;;;;;;5112129;28;20038;-55
2024/01/29 00:09:54;;;;;;;7.43;3.08;;;6.30;99.90;;;;;;5112930;28;20024;-56
2024/01/29 00:12:19;;;;;;;9.35;3.35;;;6.30;99.90;;;;;;5112920;28;20568;-55
2024/01/29 00:14:45;;;;;;;5.30;3.38;;;6.20;99.90;;;;;;5112946;28;20093;-56
2024/01/29 00:17:11;;;;;;;4.38;2.90;;;6.20;99.90;;;;;;5099253;28;20436;-55
2024/01/29 00:19:36;;;;;;;6.60;3.13;;;6.20;99.90;;;;;;5093327;28;20513;-56
2024/01/29 00:22:02;;;;;;;2.97;2.72;;;6.30;99.90;;;;;;5096381;28;20036;-56
2024/01/29 00:24:27;;;;;;;8.77;3.50;;;6.20;99.90;;;;;;5097022;28;20074;-55
2024/01/29 00:26:53;;;;;;;9.40;3.05;;;6.20;99.90;;;;;;5096392;28;20384;-55
2024/01/29 00:29:19;;;;;;;3.17;2.40;;;6.20;99.90;;;;;;5096360;28;20472;-52
2024/01/29 00:31:44;;;;;;;5.78;3.47;;;6.20;99.90;;;;;;5096272;28;20024;-56
2024/01/29 00:34:10;;;;;;;4.55;2.83;;;6.20;99.90;;;;;;5114443;27;20019;-55
2024/01/29 00:36:36;;;;;;;5.25;3.03;;;6.30;99.90;;;;;;5137175;27;20505;-54
2024/01/29 00:39:06;;;;;;;7.45;3.13;;;6.30;99.90;;;;;;5137150;27;20027;-56
2024/01/29 00:41:33;;;;;;;4.03;3.10;;;6.30;99.90;;;;;;5126933;27;20484;-56
2024/01/29 00:43:58;;;;;;;4.40;3.00;;;6.30;99.90;;;;;;5094868;28;20032;-61
2024/01/29 00:46:24;;;;;;;5.07;3.20;;;6.30;99.90;;;;;;5096060;28;20499;-44
2024/01/29 00:48:50;;;;;;;9.15;3.33;;;6.30;99.90;;;;;;5095892;28;20152;-43
2024/01/29 00:51:16;;;;;;;3.85;2.90;;;6.30;99.90;;;;;;5110423;28;20081;-52
2024/01/29 00:53:42;;;;;;;4.97;2.72;;;6.40;99.90;;;;;;5116731;28;20096;-41
2024/01/29 00:56:07;;;;;;;9.07;3.08;;;6.30;99.90;;;;;;5116273;28;20024;-56
2024/01/29 00:58:33;;;;;;;5.60;3.45;;;6.30;99.90;;;;;;5115348;28;20048;-55
2024/01/29 01:00:59;;;;;;;3.55;2.63;;;6.30;99.90;;;;;;5116138;28;20023;-56
2024/01/29 01:03:25;;;;;;;5.68;3.20;;;6.30;99.90;;;;;;5116311;28;20361;-56
2024/01/29 01:05:51;;;;;;;7.55;3.40;;;6.30;99.90;;;;;;5116057;28;20431;-55
2024/01/29 01:08:17;;;;;;;6.80;3.20;;;6.40;99.90;;;;;;5101103;28;20023;-56
2024/01/29 01:10:42;;;;;;;6.88;3.03;;;6.40;99.90;;;;;;5095647;28;20032;-56
2024/01/29 01:13:08;;;;;;;3.55;2.47;;;6.40;99.90;;;;;;5095440;28;20031;-56
2024/01/29 01:15:33;;;;;;;5.57;3.25;;;6.40;99.90;;;;;;5096074;28;20031;-56
2024/01/29 01:18:00;;;;;;;7.93;3.15;;;6.40;99.90;;;;;;5095266;28;20353;-56
2024/01/29 01:20:26;;;;;;;5.05;3.08;;;6.40;99.90;;;;;;5095932;27;20028;-56
2024/01/29 01:22:51;;;;;;;4.00;2.90;;;6.50;99.90;;;;;;5114628;28;20399;-57
2024/01/29 01:25:17;;;;;;;5.45;2.72;;;6.50;99.90;;;;;;5100835;28;20461;-56
2024/01/29 01:27:43;;;;;;;4.03;3.17;;;6.50;99.90;;;;;;5095525;28;20482;-58
2024/01/29 01:30:09;;;;;;;8.38;3.78;;;6.40;99.90;;;;;;5099202;27;20103;-58
2024/01/29 01:32:35;;;;;;;12.20;3.42;;;6.40;99.90;;;;;;5123978;27;20099;-56
2024/01/29 01:35:00;;;;;;;7.78;3.03;;;6.50;99.90;;;;;;5095072;28;20173;-58
2024/01/29 01:37:26;;;;;;;5.93;3.10;;;6.50;99.90;;;;;;5095056;28;20442;-57
2024/01/29 01:39:52;;;;;;;9.65;3.50;;;6.50;99.90;;;;;;5095039;28;20495;-57
2024/01/29 01:42:21;;;;;;;11.98;3.30;;;6.50;99.90;;;;;;5109478;28;20386;-57
2024/01/29 01:44:47;;;;;;;4.22;2.90;;;6.50;99.90;;;;;;5115324;28;20019;-41
2024/01/29 01:47:14;;;;;;;5.35;2.97;;;6.50;99.90;;;;;;5115242;28;20019;-40
2024/01/29 01:49:40;;;;;;;14.57;3.58;;;6.50;99.90;;;;;;5113048;28;20023;-41
2024/01/29 01:52:06;;;;;;;6.53;3.33;;;6.50;99.90;;;;;;5115237;28;20601;-41
2024/01/29 01:54:33;;;;;;;5.70;3.75;;;6.60;99.90;;;;;;5115353;28;20028;-40
2024/01/29 01:56:59;;;;;;;5.70;3.17;;;6.60;99.90;;;;;;5115362;27;20464;-44
2024/01/29 01:59:25;;;;;;;5.93;2.80;;;6.60;99.90;;;;;;5099247;28;20020;-41
2024/01/29 02:01:53;;;;;;;4.75;3.10;;;6.60;99.90;;;;;;5094305;28;20476;-41
2024/01/29 02:04:19;;;;;;;8.25;3.15;;;6.50;99.90;;;;;;5094144;28;20542;-43
2024/01/29 02:06:48;;;;;;;7.63;3.42;;;6.60;99.90;;;;;;5094455;28;20092;-41
2024/01/29 02:09:14;;;;;;;5.95;3.20;;;6.60;99.90;;;;;;5094310;28;20473;-40
2024/01/29 02:11:39;;;;;;;5.65;3.05;;;6.60;99.90;;;;;;5094496;28;20023;-43
2024/01/29 02:14:05;;;;;;;11.57;3.85;;;6.60;99.90;;;;;;5094379;28;20527;-71
2024/01/29 02:16:31;;;;;;;6.68;3.38;;;6.50;99.90;;;;;;5110757;28;20372;-43
2024/01/29 02:18:56;;;;;;;6.68;3.10;;;6.50;99.90;;;;;;5114579;28;20044;-41
2024/01/29 02:21:22;;;;;;;11.00;2.92;;;6.50;99.90;;;;;;5114606;28;20491;-40
2024/01/29 02:23:48;;;;;;;9.20;3.47;;;6.50;99.90;;;;;;5113692;28;20380;-42
2024/01/29 02:26:13;;;;;;;11.10;3.00;;;6.50;99.90;;;;;;5114547;28;20502;-42
2024/01/29 02:28:39;;;;;;;7.47;3.22;;;6.40;99.90;;;;;;5114514;28;20023;-42
2024/01/29 02:31:05;;;;;;;5.88;2.95;;;6.40;99.90;;;;;;5124307;27;20027;-41
2024/01/29 02:33:31;;;;;;;3.30;2.47;;;6.40;99.90;;;;;;5101378;27;20023;-41
2024/01/29 02:35:57;;;;;;;10.25;3.28;;;6.40;99.90;;;;;;5094237;28;20020;-38
2024/01/29 02:38:22;;;;;;;6.00;3.17;;;6.40;99.90;;;;;;5094223;28;20104;-38
2024/01/29 02:40:48;;;;;;;5.50;2.88;;;6.30;99.90;;;;;;5099462;28;20023;-40
2024/01/29 02:43:14;;;;;;;10.35;2.90;;;6.20;99.90;;;;;;5113916;28;20031;-38
2024/01/29 02:45:40;;;;;;;4.97;3.30;;;6.20;99.90;;;;;;5114280;28;20522;-39
2024/01/29 02:48:06;;;;;;;7.93;3.17;;;6.20;99.90;;;;;;5114021;28;20055;-54
2024/01/29 02:50:32;;;;;;;6.90;3.83;;;6.20;99.90;;;;;;5095873;28;20376;-54
2024/01/29 02:53:00;;;;;;;6.55;3.58;;;6.10;99.90;;;;;;5093899;28;20026;-54
2024/01/29 02:55:26;;;;;;;8.18;3.53;;;6.10;99.90;;;;;;5093556;28;20036;-55
2024/01/29 02:57:52;;;;;;;3.80;2.53;;;6.10;99.90;;;;;;5094066;28;20024;-54
2024/01/29 03:00:18;;;;;;;10.77;3.20;;;6.00;99.90;;;;;;5093549;28;20472;-55
2024/01/29 03:02:43;;;;;;;8.70;3.75;;;6.00;99.90;;;;;;5093367;28;20089;-56
2024/01/29 03:05:09;;;;;;;7.32;3.20;;;6.00;99.90;;;;;;5093473;28;20103;-40
2024/01/29 03:07:34;;;;;;;9.20;3.85;;;6.00;99.90;;;;;;5110034;28;20024;-42
2024/01/29 03:10:00;;;;;;;4.50;2.90;;;6.00;99.90;;;;;;5113660;28;20384;-41
2024/01/29 03:12:26;;;;;;;12.30;3.40;;;6.00;99.90;;;;;;5113665;28;20031;-43
2024/01/29 03:14:51;;;;;;;8.57;3.20;;;6.00;99.90;;;;;;5112787;28;20020;-41
2024/01/29 03:17:17;;;;;;;5.55;3.22;;;6.00;99.90;;;;;;5113620;28;20031;-39
2024/01/29 03:19:43;;;;;;;4.25;3.33;;;6.00;99.90;;;;;;5113428;28;20047;-39
2024/01/29 03:22:08;;;;;;;8.05;3.42;;;6.00;99.90;;;;;;5113423;28;20467;-73
2024/01/29 03:24:34;;;;;;;6.07;3.63;;;6.00;99.90;;;;;;5096419;28;20028;-56
2024/01/29 03:26:59;;;;;;;10.68;4.07;;;6.00;99.90;;;;;;5093069;28;20040;-55
2024/01/29 03:29:25;;;;;;;8.25;3.40;;;6.00;99.90;;;;;;5092975;28;20035;-56
2024/01/29 03:31:51;;;;;;;7.85;3.90;;;6.00;99.90;;;;;;5093525;28;20388;-55
2024/01/29 03:34:17;;;;;;;4.57;3.03;;;6.00;99.90;;;;;;5093202;28;20061;-56
2024/01/29 03:36:44;;;;;;;4.97;3.38;;;6.00;99.90;;;;;;5092969;28;20023;-59
2024/01/29 03:39:13;;;;;;;5.85;3.20;;;6.00;99.90;;;;;;5093224;28;20020;-38
2024/01/29 03:41:38;;;;;;;7.03;3.42;;;6.00;99.90;;;;;;5109108;28;20023;-39
2024/01/29 03:44:04;;;;;;;6.18;3.47;;;5.90;99.90;;;;;;5113178;28;20032;-40
2024/01/29 03:46:30;;;;;;;5.35;3.42;;;5.90;99.90;;;;;;5113209;28;20376;-40
2024/01/29 03:48:55;;;;;;;5.57;3.10;;;5.90;99.90;;;;;;5112817;28;20391;-38
2024/01/29 03:51:21;;;;;;;6.47;3.20;;;5.90;99.90;;;;;;5133753;27;20494;-42
2024/01/29 03:53:47;;;;;;;5.93;3.97;;;5.90;99.90;;;;;;5132540;27;20019;-41
2024/01/29 03:56:15;;;;;;;6.60;3.63;;;5.90;99.90;;;;;;5137562;27;20023;-39
2024/01/29 03:58:40;;;;;;;7.45;3.95;;;5.90;99.90;;;;;;5100945;27;20031;-42
2024/01/29 04:01:06;;;;;;;4.20;2.95;;;5.90;99.90;;;;;;5095646;28;20463;-39
2024/01/29 04:03:31;;;;;;;5.30;2.80;;;5.80;99.90;;;;;;5096858;28;20031;-40
2024/01/29 04:05:57;;;;;;;7.88;4.05;;;5.80;99.90;;;;;;5097489;28;20065;-40
2024/01/29 04:08:23;;;;;;;9.20;4.20;;;5.90;99.90;;;;;;5095535;28;20012;-40
2024/01/29 04:10:48;;;;;;;4.78;3.33;;;5.80;99.90;;;;;;5097036;28;20021;-39
2024/01/29 04:13:14;;;;;;;5.18;3.45;;;5.90;99.90;;;;;;5097297;28;20069;-55
2024/01/29 04:15:40;;;;;;;7.25;3.70;;;5.90;99.90;;;;;;5114350;28;20064;-55
2024/01/29 04:18:05;;;;;;;9.57;3.53;;;5.90;99.90;;;;;;5115641;28;20044;-54
2024/01/29 04:20:31;;;;;;;4.88;2.75;;;5.90;99.90;;;;;;5117327;28;20116;-53
2024/01/29 04:22:56;;;;;;;5.18;3.50;;;6.00;99.90;;;;;;5115953;28;20056;-55
2024/01/29 04:25:22;;;;;;;7.75;3.83;;;6.00;99.90;;;;;;5115471;27;20494;-41
2024/01/29 04:27:48;;;;;;;6.60;3.80;;;6.00;99.90;;;;;;5115607;28;20023;-39
2024/01/29 04:30:14;;;;;;;6.50;3.50;;;6.00;99.90;;;;;;5119800;27;20506;-41
2024/01/29 04:32:40;;;;;;;8.00;3.40;;;6.00;99.90;;;;;;5100287;27;20016;-41
2024/01/29 04:35:06;;;;;;;4.38;3.90;;;6.00;99.90;;;;;;5096310;28;20038;-38
2024/01/29 04:37:32;;;;;;;7.05;3.58;;;5.90;99.90;;;;;;5095052;28;20032;-39
2024/01/29 04:39:57;;;;;;;6.68;3.22;;;5.90;99.90;;;;;;5104387;28;20497;-39
2024/01/29 04:42:23;;;;;;;6.68;3.88;;;5.90;99.90;;;;;;5116505;28;20053;-45
2024/01/29 04:44:48;;;;;;;16.23;3.58;;;5.90;99.90;;;;;;5116544;28;20012;-39
2024/01/29 04:47:14;;;;;;;5.82;3.58;;;5.80;99.90;;;;;;5116755;28;20012;-39
2024/01/29 04:49:40;;;;;;;8.90;3.35;;;5.80;99.90;;;;;;5113967;28;20020;-39
2024/01/29 04:52:05;;;;;;;7.38;4.00;;;5.80;99.90;;;;;;5115060;28;20027;-55
2024/01/29 04:54:31;;;;;;;5.20;3.28;;;5.80;99.90;;;;;;5116303;28;20028;-55
2024/01/29 04:56:57;;;;;;;5.63;3.13;;;5.80;99.90;;;;;;5114102;28;20067;-55
2024/01/29 04:59:22;;;;;;;7.72;3.40;;;5.80;99.90;;;;;;5116234;27;20073;-59
2024/01/29 05:01:48;;;;;;;7.30;3.03;;;5.80;99.90;;;;;;5116451;28;20398;-57
2024/01/29 05:04:14;;;;;;;8.18;3.83;;;5.80;99.90;;;;;;5116057;28;20059;-72
2024/01/29 05:06:40;;;;;;;5.63;3.85;;;5.80;99.90;;;;;;5098033;28;20388;-54
2024/01/29 05:09:09;;;;;;;6.10;3.65;;;5.70;99.90;;;;;;5094335;28;20020;-55
2024/01/29 05:11:37;;;;;;;9.57;3.85;;;5.70;99.90;;;;;;5095536;28;20020;-55
2024/01/29 05:14:03;;;;;;;13.27;4.57;;;5.70;99.90;;;;;;5096334;28;20494;-55
2024/01/29 05:16:29;;;;;;;8.25;3.92;;;5.70;99.90;;;;;;5094498;28;20016;-56
2024/01/29 05:18:55;;;;;;;11.23;3.88;;;5.80;99.90;;;;;;5095266;28;20044;-38
2024/01/29 05:21:22;;;;;;;9.10;4.25;;;5.80;99.90;;;;;;5095659;28;20048;-40
2024/01/29 05:23:50;;;;;;;6.85;3.78;;;5.80;99.90;;;;;;5113971;28;20030;-42
2024/01/29 05:26:16;;;;;;;6.05;3.45;;;5.80;99.90;;;;;;5100088;28;20032;-42
2024/01/29 05:28:41;;;;;;;6.72;4.05;;;5.80;99.90;;;;;;5095224;28;20103;-41
2024/01/29 05:31:07;;;;;;;5.63;3.53;;;5.80;99.90;;;;;;5095766;28;20460;-55
2024/01/29 05:33:32;;;;;;;9.35;3.35;;;5.80;99.90;;;;;;5106504;28;20080;-55
2024/01/29 05:35:58;;;;;;;9.20;3.92;;;5.80;99.90;;;;;;5115577;28;20487;-38
2024/01/29 05:38:24;;;;;;;5.15;3.65;;;5.80;99.90;;;;;;5113445;28;20032;-41
2024/01/29 05:40:49;;;;;;;6.90;3.97;;;5.80;99.90;;;;;;5114612;28;20031;-40
2024/01/29 05:43:15;;;;;;;7.93;3.60;;;5.80;99.90;;;;;;5115281;28;20034;-45
2024/01/29 05:45:41;;;;;;;7.72;4.32;;;5.80;99.90;;;;;;5115278;28;20023;-45
2024/01/29 05:48:08;;;;;;;6.32;3.70;;;5.90;99.90;;;;;;5114347;28;20458;-40
2024/01/29 05:50:34;;;;;;;7.20;4.07;;;5.90;99.90;;;;;;5115272;27;20062;-39
2024/01/29 05:52:59;;;;;;;10.68;4.22;;;6.00;99.90;;;;;;5099875;28;20070;-39
2024/01/29 05:55:25;;;;;;;7.05;3.45;;;6.00;99.90;;;;;;5093423;28;20186;-56
2024/01/29 05:57:50;;;;;;;6.97;3.38;;;6.00;99.90;;;;;;5112405;28;20028;-69
2024/01/29 06:00:17;;;;;;;5.07;3.35;;;6.00;99.90;;;;;;5113824;28;20028;-55
2024/01/29 06:02:47;;;;;;;7.82;3.72;;;6.10;99.90;;;;;;5114869;28;20028;-52
2024/01/29 06:05:13;;;;;;;6.40;3.78;;;6.10;99.90;;;;;;5115252;28;20510;-52
2024/01/29 06:07:40;;;;;;;7.43;3.40;;;6.10;99.90;;;;;;5115127;28;20024;-55
2024/01/29 06:10:07;;;;;;;6.93;3.53;;;6.00;99.90;;;;;;5114795;28;20103;-54
2024/01/29 06:12:33;;;;;;;5.78;3.15;;;6.10;99.90;;;;;;5113027;28;20035;-55
2024/01/29 06:14:58;;;;;;;7.97;3.42;;;6.10;99.90;;;;;;5114769;28;20032;-56
2024/01/29 06:17:24;;;;;;;6.85;4.43;;;6.10;99.90;;;;;;5114140;28;20028;-52
2024/01/29 06:19:50;;;;;;;7.05;4.05;;;6.10;99.90;;;;;;5113175;28;20423;-54
2024/01/29 06:22:16;;;;;;;7.13;3.50;;;6.10;99.90;;;;;;5114486;28;20070;-55
2024/01/29 06:24:42;;;;;;;9.48;4.10;;;6.10;99.90;;;;;;5117090;27;20020;-55
2024/01/29 06:27:08;;;;;;;9.52;4.07;;;6.10;99.90;;;;;;5129181;27;20395;-57
2024/01/29 06:29:34;;;;;;;9.93;4.53;;;6.10;99.90;;;;;;5113589;28;20030;-60
2024/01/29 06:32:01;;;;;;;6.60;3.97;;;6.10;99.90;;;;;;5094005;28;20448;-54
2024/01/29 06:34:26;;;;;;;6.63;3.67;;;6.10;99.90;;;;;;5112936;28;20103;-54
2024/01/29 06:36:53;;;;;;;6.18;3.63;;;6.10;99.90;;;;;;5114316;28;20107;-54
2024/01/29 06:39:19;;;;;;;8.73;4.20;;;6.10;99.90;;;;;;5114174;28;20099;-55
2024/01/29 06:41:45;;;;;;;7.47;3.70;;;6.10;99.90;;;;;;5112981;28;20104;-55
2024/01/29 06:44:10;;;;;;;6.57;4.10;;;6.10;99.90;;;;;;5113981;28;20036;-55
2024/01/29 06:46:36;;;;;;;9.23;3.95;;;6.10;99.90;;;;;;5113509;28;20380;-55
2024/01/29 06:49:02;;;;;;;8.30;4.28;;;6.10;99.90;;;;;;5093639;28;20024;-53
2024/01/29 06:51:28;;;;;;;8.35;3.88;;;6.10;99.90;;;;;;5093874;28;20035;-52
2024/01/29 06:53:54;;;;;;;6.65;4.22;;;6.10;99.90;;;;;;5093552;28;20051;-72
2024/01/29 06:56:19;;;;;;;6.70;3.55;;;6.00;99.90;;;;;;5093542;28;20027;-54
2024/01/29 06:58:45;;;;;;;7.90;3.92;;;6.00;99.90;;;;;;5093720;28;20028;-54
2024/01/29 07:01:11;;;;;;;7.35;4.00;;;6.00;99.90;;;;;;5093376;28;20140;-53
2024/01/29 07:03:36;;;;;;;8.15;4.05;;;6.00;99.90;;;;;;5093828;28;20024;-55
2024/01/29 07:06:02;;;;;;;7.07;4.22;;;6.00;99.90;;;;;;5093281;28;20544;-55
2024/01/29 07:08:28;;;;;;;7.68;4.13;;;6.00;99.90;;;;;;5093241;28;20111;-54
2024/01/29 07:10:54;;;;;;;7.68;4.00;;;6.00;99.90;;;;;;5091953;28;20369;-64
2024/01/29 07:13:20;;;;;;;4.68;3.50;;;6.00;99.90;;;;;;5091946;28;20028;-56
2024/01/29 07:15:45;;;;;;;9.25;4.03;;;6.00;99.90;;;;;;5093204;28;20111;-39
2024/01/29 07:18:11;;;;;;;6.82;4.40;;;6.00;99.90;;;;;;5092784;28;20066;-40
2024/01/29 07:20:42;;;;;;;12.80;3.90;;;6.00;99.90;;;;;;5093559;28;20020;-39
2024/01/29 07:23:08;;;;;;;6.50;3.70;;;6.00;99.90;;;;;;5093421;28;20476;-39
2024/01/29 07:25:35;;;;;;;6.95;4.35;;;6.00;99.90;;;;;;5113115;27;20023;-42
2024/01/29 07:28:03;;;;;;;7.78;4.10;;;6.10;99.90;;;;;;5107691;27;20476;-40
2024/01/29 07:30:29;;;;;;;7.45;4.43;;;6.00;99.90;;;;;;5091990;28;20484;-39
2024/01/29 07:32:59;;;;;;;6.82;3.63;;;6.00;99.90;;;;;;5093053;28;20020;-39
2024/01/29 07:35:25;;;;;;;6.95;3.63;;;6.00;99.90;;;;;;5093370;28;20077;-56
2024/01/29 07:37:52;;;;;;;7.80;4.18;;;6.00;99.90;;;;;;5095201;28;20103;-54
2024/01/29 07:40:19;;;;;;;9.57;4.40;;;6.00;99.90;;;;;;5110580;28;20077;-55
2024/01/29 07:42:45;;;;;;;13.18;4.47;;;6.00;99.90;;;;;;5093104;28;20032;-56
2024/01/29 07:45:11;;;;;;;8.30;3.83;;;5.90;99.90;;;;;;5092943;28;20036;-56
2024/01/29 07:47:37;;;;;;;9.55;4.15;;;5.90;99.90;;;;;;5093236;28;20376;-39
2024/01/29 07:50:03;;;;;;;8.07;4.88;;;6.00;99.90;;;;;;5091412;28;20028;-39
2024/01/29 07:52:29;;;;;;;14.65;5.57;;;6.00;99.90;;;;;;5093073;28;20028;-40
2024/01/29 07:54:55;;;;;;;8.15;4.43;;;6.00;99.90;;;;;;5093383;28;20515;-39
2024/01/29 07:57:20;;;;;;;8.10;4.50;;;6.10;99.90;;;;;;5092641;28;20110;-48
2024/01/29 07:59:46;;;;;;;8.18;4.22;;;6.10;99.90;;;;;;5092702;28;20515;-42
2024/01/29 08:02:12;;;;;;;6.82;4.10;;;6.10;99.90;;;;;;5092601;28;20051;-44
2024/01/29 08:04:38;;;;;;;5.22;3.58;;;6.20;99.90;;;;;;5091476;28;20530;-41
2024/01/29 08:07:04;;;;;;;10.65;4.50;;;6.20;99.90;;;;;;5091330;28;20032;-41
2024/01/29 08:09:29;;;;;;;7.38;4.15;;;6.20;99.90;;;;;;5092601;28;20107;-39
2024/01/29 08:11:55;;;;;;;12.95;4.80;;;6.30;99.90;;;;;;5093194;28;20036;-41
2024/01/29 08:14:21;;;;;;;8.27;4.38;;;6.30;99.90;;;;;;5092686;28;20028;-41
2024/01/29 08:16:47;;;;;;;9.95;4.60;;;6.30;99.90;;;;;;5092527;28;20475;-40
2024/01/29 08:19:13;;;;;;;9.32;4.20;;;6.30;99.90;;;;;;5091108;28;20055;-39
2024/01/29 08:21:38;;;;;;;8.30;4.68;;;6.40;99.90;;;;;;5092772;28;20020;-38
2024/01/29 08:24:05;;;;;;;11.00;4.85;;;6.40;99.90;;;;;;5092432;28;20036;-41
2024/01/29 08:26:31;;;;;;;11.32;5.20;;;6.50;99.90;;;;;;5127434;28;20023;-39
2024/01/29 08:28:57;;;;;;;8.95;4.50;;;6.50;99.90;;;;;;5095980;28;20384;-42
2024/01/29 08:31:24;;;;;;;7.53;4.63;;;6.50;99.90;;;;;;5113081;28;20503;-46
2024/01/29 08:33:49;;;;;;;11.30;3.83;;;6.50;99.90;;;;;;5112714;28;20107;-40
2024/01/29 08:36:15;;;;;;;10.80;4.63;;;6.50;99.90;;;;;;5112732;28;20118;-38
2024/01/29 08:38:42;;;;;;;8.95;4.63;;;6.50;99.90;;;;;;5113117;28;20016;-46
2024/01/29 08:41:08;;;;;;;7.68;4.72;;;6.50;99.90;;;;;;5114357;28;20032;-53
2024/01/29 08:43:33;;;;;;;9.95;4.57;;;6.50;99.90;;;;;;5116539;28;20483;-39
2024/01/29 08:46:00;;;;;;;9.38;4.07;;;6.60;99.90;;;;;;5115616;28;20055;-40
2024/01/29 08:48:26;;;;;;;13.57;4.20;;;6.60;99.90;;;;;;5116310;28;20054;-39
2024/01/29 08:50:51;;;;;;;10.20;4.50;;;6.60;99.90;;;;;;5116405;28;20020;-40
2024/01/29 08:53:17;;;;;;;7.68;4.32;;;6.70;99.90;;;;;;5116452;28;20020;-53
2024/01/29 08:55:43;;;;;;;7.45;4.28;;;6.70;99.90;;;;;;5116271;28;20020;-56
2024/01/29 08:58:09;;;;;;;17.35;4.97;;;6.70;99.90;;;;;;5116345;28;20477;-57
2024/01/29 09:00:34;;;;;;;8.93;4.30;;;6.70;99.90;;;;;;5107488;28;20074;-57
2024/01/29 09:03:00;;;;;;;12.45;4.88;;;6.70;99.90;;;;;;5096214;28;20114;-56
2024/01/29 09:05:25;;;;;;;6.10;4.28;;;6.80;99.90;;;;;;5095701;28;20020;-57
2024/01/29 09:07:52;;;;;;;8.98;4.63;;;6.80;99.90;;;;;;5095586;28;20091;-56
2024/01/29 09:10:18;;;;;;;10.35;4.18;;;6.80;99.90;;;;;;5095628;28;20468;-56
2024/01/29 09:12:43;;;;;;;8.55;4.47;;;6.90;99.90;;;;;;5096396;28;20027;-56
2024/01/29 09:15:09;;;;;;;14.30;5.05;;;6.90;99.90;;;;;;5095415;28;20024;-56
2024/01/29 09:17:36;;;;;;;13.55;4.57;;;6.90;99.90;;;;;;5112704;28;20487;-55
2024/01/29 09:20:06;;;;;;;8.35;4.60;;;6.90;99.90;;;;;;5111459;28;20024;-55
2024/01/29 09:22:32;;;;;;;6.25;4.38;;;7.00;99.90;;;;;;5094163;28;20081;-55
2024/01/29 09:24:58;;;;;;;11.45;4.13;;;7.10;99.90;;;;;;5103513;27;20050;-56
2024/01/29 09:27:23;;;;;;;9.20;5.32;;;7.10;99.90;;;;;;5120209;27;20024;-57
2024/01/29 09:29:49;;;;;;;8.77;4.57;;;7.10;99.90;;;;;;5093970;28;20469;-55
2024/01/29 09:32:15;;;;;;;9.05;5.28;;;7.10;99.90;;;;;;5095400;28;20389;-54
2024/01/29 09:34:40;;;;;;;11.40;5.20;;;7.10;99.90;;;;;;5095103;28;20020;-56
2024/01/29 09:37:06;;;;;;;13.45;5.07;;;7.10;99.90;;;;;;5099656;28;20031;-54
2024/01/29 09:39:32;;;;;;;9.32;4.35;;;7.10;99.90;;;;;;5115680;28;20015;-59
2024/01/29 09:42:05;;;;;;;12.18;4.45;;;7.10;99.90;;;;;;5115348;28;20494;-57
2024/01/29 09:44:40;;;;;;;15.57;5.28;;;7.20;99.90;;;;;;5114223;28;20031;-56
2024/01/29 09:47:10;;;;;;;9.65;5.50;;;7.20;99.90;;;;;;5114046;28;20027;-76
2024/01/29 09:49:40;;;;;;;9.45;5.60;;;7.30;99.90;;;;;;5113943;28;20058;-57
2024/01/29 09:52:10;;;;;;;9.75;5.28;;;7.30;99.90;;;;;;5114241;28;20061;-55
2024/01/29 09:54:36;;;;;;;7.88;5.13;;;7.40;99.90;;;;;;5112943;28;20054;-57
2024/01/29 09:57:03;;;;;;;12.00;5.53;;;7.50;99.90;;;;;;5115152;28;20026;-57
2024/01/29 09:59:28;;;;;;;14.02;4.70;;;7.50;99.90;;;;;;5114996;28;20027;-56
2024/01/29 10:01:55;;;;;;;8.77;5.10;;;7.60;99.90;;;;;;5115024;28;20502;-57
2024/01/29 10:04:21;;;;;;;12.93;5.30;;;7.70;99.90;;;;;;5114859;28;20023;-57
2024/01/29 10:06:48;;;;;;;13.57;5.72;;;7.80;99.90;;;;;;5115035;28;20061;-43
2024/01/29 10:09:15;;;;;;;14.00;6.70;;;7.90;99.90;;;;;;5114900;28;20012;-39
2024/01/29 10:11:42;;;;;;;12.73;5.18;;;8.00;99.90;;;;;;5114234;28;20047;-44
2024/01/29 10:14:08;;;;;;;12.75;6.05;;;8.10;99.90;;;;;;5113489;28;20051;-45
2024/01/29 10:16:34;;;;;;;10.57;5.50;;;8.20;99.90;;;;;;5114562;27;20084;-41
2024/01/29 10:19:00;;;;;;;10.60;5.40;;;8.20;99.90;;;;;;5114120;28;20052;-42
2024/01/29 10:21:27;;;;;;;12.40;5.47;;;8.40;99.90;;;;;;5094251;28;20480;-40
2024/01/29 10:23:59;;;;;;;13.82;5.38;;;8.50;99.90;;;;;;5094088;28;20024;-42
2024/01/29 10:26:26;;;;;;;10.10;5.72;;;8.60;99.90;;;;;;5126977;27;20019;-40
2024/01/29 10:29:06;;;;;;;8.93;5.97;;;8.60;99.90;;;;;;5112982;28;20529;-55
2024/01/29 10:31:32;;;;;;;13.82;5.03;;;8.70;99.90;;;;;;5112534;28;20039;-56
2024/01/29 10:33:59;;;;;;;10.48;5.18;;;8.80;99.90;;;;;;5114397;28;20024;-56
2024/01/29 10:36:25;;;;;;;12.95;5.80;;;8.90;99.90;;;;;;5100266;28;20484;-57
2024/01/29 10:38:51;;;;;;;12.77;5.97;;;9.00;99.90;;;;;;5113008;28;20039;-55
2024/01/29 10:41:21;;;;;;;13.55;6.05;;;9.00;99.90;;;;;;5114236;28;20388;-56
2024/01/29 10:43:51;;;;;;;13.45;5.75;;;9.10;99.90;;;;;;5114432;28;20383;-55
2024/01/29 10:46:21;;;;;;;14.93;5.93;;;9.20;99.90;;;;;;5099218;28;20472;-56
2024/01/29 10:48:53;;;;;;;11.20;5.03;;;9.20;99.90;;;;;;5093644;28;20441;-39
2024/01/29 10:51:21;;;;;;;11.80;5.40;;;9.20;99.90;;;;;;5094007;28;20495;-40
2024/01/29 10:53:48;;;;;;;11.27;6.20;;;9.30;99.90;;;;;;5094219;28;20027;-39
2024/01/29 10:56:16;;;;;;;17.70;6.33;;;9.30;99.90;;;;;;5093671;28;20024;-39
2024/01/29 10:58:42;;;;;;;10.50;6.00;;;9.40;99.90;;;;;;5093638;28;20020;-38
2024/01/29 11:01:10;;;;;;;13.90;5.47;;;9.50;99.90;;;;;;5093853;28;20112;-42
2024/01/29 11:03:37;;;;;;;13.55;6.82;;;9.50;99.90;;;;;;5110320;28;20476;-48
2024/01/29 11:06:26;;;;;;;7.25;5.43;;;9.60;99.90;;;;;;5113793;28;20379;-76
2024/01/29 11:09:02;;;;;;;9.93;5.97;;;9.70;99.90;;;;;;5113860;28;20476;-41
2024/01/29 11:11:29;;;;;;;9.68;5.70;;;9.70;99.90;;;;;;5101183;28;20472;-45
2024/01/29 11:13:55;;;;;;;11.00;5.88;;;9.80;99.90;;;;;;5093578;28;20239;-41
2024/01/29 11:16:22;;;;;;;11.95;6.47;;;10.00;99.90;;;;;;5093715;28;20377;-41
2024/01/29 11:18:48;;;;;;;15.00;5.78;;;10.00;99.90;;;;;;5095092;28;20461;-70
2024/01/29 11:21:14;;;;;;;18.67;6.78;;;9.90;99.90;;;;;;5113504;28;20069;-46
2024/01/29 11:23:46;;;;;;;13.10;6.65;;;9.90;99.90;;;;;;5113416;28;20023;-40
2024/01/29 11:26:16;;;;;;;9.70;5.70;;;9.90;99.90;;;;;;5128993;27;20464;-41
2024/01/29 11:28:42;;;;;;;12.95;6.70;;;9.90;99.90;;;;;;5094952;27;20024;-41
2024/01/29 11:31:12;;;;;;;12.52;7.25;;;10.10;99.90;;;;;;5093118;28;20536;-42
2024/01/29 11:33:38;;;;;;;15.23;7.22;;;10.20;99.90;;;;;;5093027;28;20028;-42
2024/01/29 11:36:13;;;;;;;10.95;6.57;;;10.30;99.90;;;;;;5097502;28;20023;-41
2024/01/29 11:38:39;;;;;;;16.38;7.25;;;10.30;99.90;;;;;;5113333;28;20036;-43
2024/01/29 11:41:05;;;;;;;14.93;6.72;;;10.40;99.90;;;;;;5113410;28;20056;-41
2024/01/29 11:43:34;;;;;;;14.80;7.00;;;10.50;99.90;;;;;;5113222;28;20066;-42
2024/01/29 11:46:00;;;;;;;14.07;6.03;;;10.60;99.90;;;;;;5111174;28;20479;-41
2024/01/29 11:48:26;;;;;;;16.17;7.78;;;10.60;99.90;;;;;;5113415;28;20020;-40
2024/01/29 11:50:53;;;;;;;14.93;6.45;;;10.60;99.90;;;;;;5102420;28;20388;-41
2024/01/29 11:53:25;;;;;;;21.90;6.63;;;10.70;99.90;;;;;;5092622;28;20486;-41
2024/01/29 11:55:51;;;;;;;12.00;7.07;;;10.80;99.90;;;;;;5095120;28;20051;-41
2024/01/29 11:58:18;;;;;;;16.10;7.28;;;10.80;99.90;;;;;;5102048;28;20026;-41
2024/01/29 12:00:46;;;;;;;18.50;7.60;;;10.90;99.90;;;;;;5113126;28;20032;-42
2024/01/29 12:03:16;;;;;;;17.20;6.53;;;11.00;99.90;;;;;;5095534;28;20093;-42
2024/01/29 12:05:42;;;;;;;14.50;7.28;;;11.10;99.90;;;;;;5092785;28;20266;-41
2024/01/29 12:08:27;;;;;;;11.55;6.95;;;11.10;99.90;;;;;;5092759;28;20427;-46
2024/01/29 12:11:02;;;;;;;15.60;6.85;;;11.20;99.90;;;;;;5095738;28;20052;-40
2024/01/29 12:13:28;;;;;;;17.10;7.90;;;11.20;99.90;;;;;;5091099;28;20426;-41
2024/01/29 12:15:56;;;;;;;14.95;7.00;;;11.30;99.90;;;;;;5106110;28;20051;-45
2024/01/29 12:18:24;;;;;;;;;;;11.30;99.90;;;;;;5117244;28;20083;-45
2024/01/29 12:20:50;;;;;;;13.38;6.55;;;11.40;99.90;;;;;;5117049;28;20287;-41
2024/01/29 12:23:17;;;;;;;11.85;6.90;;;11.40;99.90;;;;;;5104347;28;20032;-41
2024/01/29 12:25:47;;;;;;;17.25;7.05;;;11.50;99.90;;;;;;5096620;28;20476;-60
2024/01/29 12:28:15;;;;;;;12.05;5.90;;;11.50;99.90;;;;;;5109045;28;20031;-58
2024/01/29 12:30:41;;;;;;;15.02;6.15;;;11.50;99.90;;;;;;5104857;28;20392;-55
2024/01/29 12:33:07;;;;;;;12.43;6.72;;;11.60;99.90;;;;;;5096380;28;20452;-57
2024/01/29 12:35:36;;;;;;;11.40;6.78;;;11.70;99.90;;;;;;5096373;28;20077;-58
2024/01/29 12:38:11;;;;;;;13.75;6.00;;;11.80;99.90;;;;;;5094594;28;20028;-57
2024/01/29 12:40:39;;;;;;;15.00;7.07;;;11.80;99.90;;;;;;5094827;28;20028;-50
2024/01/29 12:43:07;;;;;;;15.88;7.63;;;11.90;99.90;;;;;;5102262;27;20087;-56
2024/01/29 12:45:33;;;;;;;13.82;6.68;;;12.00;99.90;;;;;;5099720;28;20480;-54
2024/01/29 12:48:12;;;;;;;11.70;7.40;;;12.00;99.90;;;;;;5105249;28;20023;-54